Sat, 24 Jul 2021 15:46:42 UTC

Information for RPM ethtool-6-4.20090306git.fc11.ppc64.rpm

ID1104668
Nameethtool
Version6
Release4.20090306git.fc11
Epoch
Archppc64
SummaryEthernet settings tool for PCI ethernet cards
DescriptionThis utility allows querying and changing settings such as speed, port, autonegotiation, PCI locations and checksum offload on many network devices, especially of ethernet devices.
Build Time2009-03-07 20:43:39 GMT
Size94,265
2c0fcf8020b7afc25cfd942b619a7362
LicenseGPLv2
Buildrootdist-f11-build-398683-67760
Provides
ethtool = 6-4.20090306git.fc11
ethtool(ppc-64) = 6-4.20090306git.fc11
Obsoletes No Obsoletes
Conflicts No Conflicts
Requires
libc.so.6()(64bit)
libc.so.6(GLIBC_2.3)(64bit)
libc.so.6(GLIBC_2.3.4)(64bit)
libc.so.6(GLIBC_2.4)(64bit)
rpmlib(CompressedFileNames) <= 3.0.4-1
rpmlib(FileDigests) <= 4.6.0-1
rpmlib(PayloadFilesHavePrefix) <= 4.0-1
rtld(GNU_HASH)
Recommends No Recommends
Suggests No Suggests
Supplements No Supplements
Enhances No Enhances
Files
1 through 11 of 11
Name ascending sort Size
/sbin/ethtool184,816
/usr/sbin/ethtool18
/usr/share/doc/ethtool-64,096
/usr/share/doc/ethtool-6/AUTHORS267
/usr/share/doc/ethtool-6/COPYING17,992
/usr/share/doc/ethtool-6/ChangeLog.git26,862
/usr/share/doc/ethtool-6/ChangeLog.old11,384
/usr/share/doc/ethtool-6/LICENSE100
/usr/share/doc/ethtool-6/NEWS3,938
/usr/share/doc/ethtool-6/README127
/usr/share/man/man8/ethtool.8.gz3,600
Component of
Page:
1 through 50 of 24178 >>>
Buildroot descending sort Created State
dist-f11-build-827355-121481 2010-07-07 21:50:32 expired
dist-f11-build-826623-121258 2010-07-07 15:07:09 expired
dist-f11-build-826209-121258 2010-07-07 00:00:56 expired
dist-f11-build-826184-121258 2010-07-06 23:10:13 expired
dist-f11-build-826179-121258 2010-07-06 23:08:33 expired
dist-f11-build-825650-121155 2010-07-06 06:17:33 expired
dist-f11-build-825443-121155 2010-07-05 19:47:59 expired
dist-f11-build-825441-121155 2010-07-05 19:46:33 expired
dist-f11-build-825437-121155 2010-07-05 19:46:17 expired
dist-f11-build-825434-121155 2010-07-05 19:44:53 expired
dist-f11-build-825264-121096 2010-07-05 16:49:41 expired
dist-f11-build-823701-120718 2010-07-03 14:26:16 expired
dist-f11-build-823693-120718 2010-07-03 14:13:52 expired
dist-f11-build-823254-120646 2010-07-02 19:51:09 expired
dist-f11-build-823243-120646 2010-07-02 19:49:28 expired
dist-f11-build-823234-120646 2010-07-02 19:45:54 expired
dist-f11-build-822376-120488 2010-07-02 00:35:09 expired
dist-f11-build-822252-120457 2010-07-01 21:13:04 expired
dist-f11-build-822234-120457 2010-07-01 21:10:58 expired
dist-f11-build-821270-120347 2010-07-01 10:57:38 expired
dist-f11-build-819095-119850 2010-06-29 06:40:15 expired
dist-f11-build-818865-119850 2010-06-28 21:43:57 expired
dist-f11-build-818243-119743 2010-06-28 12:54:51 expired
dist-f11-build-818128-119743 2010-06-28 09:56:22 expired
dist-f11-build-818098-119743 2010-06-28 09:16:26 expired
dist-f11-build-818056-119743 2010-06-28 08:43:35 expired
dist-f11-build-816495-119271 2010-06-25 09:24:10 expired
dist-f11-build-816403-119134 2010-06-25 04:43:34 expired
dist-f11-build-816228-119134 2010-06-24 19:09:11 expired
dist-f11-build-816224-119134 2010-06-24 19:07:05 expired
dist-f11-build-816219-119134 2010-06-24 18:57:29 expired
dist-f11-build-816209-119134 2010-06-24 18:42:22 expired
dist-f11-build-816190-119134 2010-06-24 18:16:22 expired
dist-f11-build-816025-119134 2010-06-24 14:07:14 expired
dist-f11-build-816022-119134 2010-06-24 14:05:29 expired
dist-f11-build-815961-119123 2010-06-24 12:10:40 expired
dist-f11-build-815624-119020 2010-06-23 21:03:06 expired
dist-f11-build-815620-119020 2010-06-23 21:01:17 expired
dist-f11-build-815580-119020 2010-06-23 20:04:07 expired
dist-f11-build-815447-118982 2010-06-23 16:53:36 expired
dist-f11-build-815186-118922 2010-06-23 12:05:50 expired
dist-f11-build-814941-118839 2010-06-23 07:41:33 expired
dist-f11-build-814805-118839 2010-06-23 04:08:11 expired
dist-f11-build-814745-118721 2010-06-23 00:17:14 expired
dist-f11-build-814684-118721 2010-06-22 21:52:28 expired
dist-f11-build-814660-118721 2010-06-22 20:51:25 expired
dist-f11-build-814580-118721 2010-06-22 18:29:47 expired
dist-f11-build-814198-118699 2010-06-22 10:37:21 expired
dist-f11-build-814140-118699 2010-06-22 09:49:23 expired
dist-f11-build-813845-118555 2010-06-21 22:20:12 expired